MMPN/UPN METAR and TAF weather

Enter ICAO airport designator
Station Type Date Time Source
MMPN METAR 2022/11/30 23:41 UTC NOAA

MMPN 302341Z 15006KT 7SM FEW035CB SCT130 21/17 A3010 RMK 8/360 HZY


Station Type Date Time Source
MMPN Decoded METAR 2022/11/30 23:41 UTC NOAA

Uruapan / Gen Rayon, Mexico (MMPN) 19-24N 102-02W
Nov 30, 2022 - 06:41 PM EST / 2022.11.30 2341 UTC
Wind: from the SSE (150 degrees) at 7 MPH (6 KT):0
Visibility: 7 mile(s):0
Sky conditions: partly cloudy
Weather: Cumulonimbus clouds observed
Temperature: 69 F (21 C)
Dew Point: 62 F (17 C)
Relative Humidity: 77%
Pressure (altimeter): 30.1 in. Hg (1019 hPa)
ob: MMPN 302341Z 15006KT 7SM FEW035CB SCT130 21/17 A3010 RMK 8/360 HZY
cycle: 23

Station Type Date Time Source
MMPN TAF 2022/11/30 18:09 UTC NOAA

TAF MMPN 301705Z 3018/0118 16008KT P6SM SCT020
TEMPO 3021/0101 5SM -TSRA BKN030CB
FM010100 36005KT P6SM SCT030
FM011200 00000KT P6SM BKN100
BECMG 0114/0115 18008KT SKC

Example: see airport list